Terminal Aerodrome Forecast
Issued by NWS

Home | Current Version | Previous Version | Text Only | Print | Product List | Glossary On
Versions: 1 2 3 4 5 6 7 8 9 10 11 12 13 14 15 16 17 18 19
000
FTUS41 KCAR 272325
TAFFVE
TAF
KFVE 272325Z 2800/2824 26006KT P6SM SKC
     FM281800 25008G16KT P6SM SCT200=

USA.gov is the U.S. government's official web portal to all federal, state and local government web resources and services.